Time;durP1;ratioP1;P1;durP2;ratioP2;P2;SDS_P1;SDS_P2;PMS_P1;PMS_P2;Temp;Humidity;BMP_temperature;BMP_pressure;BME280_temperature;BME280_humidity;BME280_pressure;Samples;Min_cycle;Max_cycle;Signal;HPM_P1;HPM_P2
2023/08/31 00:02:11;;;;;;;6.32;1.70;;;11.90;99.90;;;;;;5081313;28;20045;-75
2023/08/31 00:04:36;;;;;;;3.30;1.48;;;11.90;99.90;;;;;;5123984;27;20040;-74
2023/08/31 00:07:02;;;;;;;5.80;1.90;;;11.90;99.90;;;;;;5091111;28;20071;-75
2023/08/31 00:09:29;;;;;;;6.22;1.77;;;11.80;99.90;;;;;;5093150;28;20035;-75
2023/08/31 00:11:56;;;;;;;6.65;2.10;;;11.90;99.90;;;;;;5099579;28;20040;-75
2023/08/31 00:14:23;;;;;;;4.20;1.80;;;11.90;99.90;;;;;;5096875;28;20048;-73
2023/08/31 00:16:50;;;;;;;6.57;2.35;;;11.80;99.90;;;;;;5098856;28;20119;-75
2023/08/31 00:19:16;;;;;;;5.32;2.03;;;11.80;99.90;;;;;;5092442;28;20047;-74
2023/08/31 00:21:42;;;;;;;7.05;1.90;;;11.90;99.90;;;;;;5091650;28;20059;-75
2023/08/31 00:24:09;;;;;;;9.25;2.55;;;11.80;99.90;;;;;;5080178;28;20383;-74
2023/08/31 00:26:40;;;;;;;6.40;1.95;;;11.90;99.90;;;;;;5089590;28;20077;-75
2023/08/31 00:29:06;;;;;;;4.20;2.00;;;11.80;99.90;;;;;;5112053;28;20114;-75
2023/08/31 00:31:33;;;;;;;7.22;2.30;;;11.80;99.90;;;;;;5093758;28;20044;-75
2023/08/31 00:34:03;;;;;;;5.18;2.55;;;11.80;99.90;;;;;;5113240;27;20040;-75
2023/08/31 00:36:29;;;;;;;4.63;2.20;;;11.80;99.90;;;;;;5066643;28;20040;-75
2023/08/31 00:38:55;;;;;;;5.13;2.45;;;11.80;99.90;;;;;;5088726;28;20047;-76
2023/08/31 00:41:22;;;;;;;5.50;2.65;;;11.80;99.90;;;;;;5080176;28;20084;-75
2023/08/31 00:43:48;;;;;;;7.45;2.40;;;11.70;99.90;;;;;;5081590;28;20036;-75
2023/08/31 00:46:14;;;;;;;10.15;2.92;;;11.80;99.90;;;;;;5075978;28;20046;-75
2023/08/31 00:48:40;;;;;;;8.73;3.15;;;11.80;99.90;;;;;;5080098;28;20111;-75
2023/08/31 00:51:07;;;;;;;8.25;3.63;;;11.70;99.90;;;;;;5079394;28;20394;-75
2023/08/31 00:53:33;;;;;;;7.90;3.40;;;11.80;99.90;;;;;;5087830;28;20047;-75
2023/08/31 00:55:59;;;;;;;4.60;2.75;;;11.70;99.90;;;;;;5087061;28;20044;-74
2023/08/31 00:58:25;;;;;;;4.43;2.75;;;11.70;99.90;;;;;;5094789;28;20531;-75
2023/08/31 01:01:16;;;;;;;11.10;3.42;;;11.70;99.90;;;;;;5095463;28;20036;-75
2023/08/31 01:03:57;;;;;;;7.25;3.35;;;11.70;99.90;;;;;;5092723;28;20393;-76
2023/08/31 01:06:53;;;;;;;5.70;3.10;;;11.70;99.90;;;;;;5079454;28;20052;-76
2023/08/31 01:09:40;;;;;;;9.57;3.10;;;11.70;99.90;;;;;;5085625;28;20486;-76
2023/08/31 01:12:10;;;;;;;5.15;2.90;;;11.70;99.90;;;;;;5082384;28;20094;-76
2023/08/31 01:14:40;;;;;;;9.52;3.28;;;11.60;99.90;;;;;;5090535;28;20039;-75
2023/08/31 01:17:08;;;;;;;9.07;4.15;;;11.60;99.90;;;;;;5089213;28;20126;-75
2023/08/31 01:19:40;;;;;;;5.13;2.65;;;11.60;99.90;;;;;;5065167;28;20055;-74
2023/08/31 01:22:12;;;;;;;5.55;2.75;;;11.60;99.90;;;;;;5074833;28;20151;-75
2023/08/31 01:24:39;;;;;;;6.32;2.70;;;11.50;99.90;;;;;;5086037;28;20043;-75
2023/08/31 01:27:05;;;;;;;5.38;2.65;;;11.50;99.90;;;;;;5081939;28;20054;-75
2023/08/31 01:29:31;;;;;;;7.70;2.75;;;11.50;99.90;;;;;;5088332;28;20106;-74
2023/08/31 01:31:57;;;;;;;7.22;2.50;;;11.50;99.90;;;;;;5090448;28;20567;-75
2023/08/31 01:34:23;;;;;;;6.18;2.67;;;11.50;99.90;;;;;;5095125;28;20067;-75
2023/08/31 01:36:55;;;;;;;8.00;2.80;;;11.40;99.90;;;;;;5090826;28;21113;-75
2023/08/31 01:39:29;;;;;;;5.25;3.00;;;11.40;99.90;;;;;;5091995;28;20040;-75
2023/08/31 01:42:03;;;;;;;7.68;2.92;;;11.40;99.90;;;;;;5085880;28;20048;-75
2023/08/31 01:44:32;;;;;;;4.90;2.33;;;11.30;99.90;;;;;;5082699;28;20482;-75
2023/08/31 01:47:07;;;;;;;10.05;2.45;;;11.30;99.90;;;;;;5090183;28;20048;-75
2023/08/31 01:49:40;;;;;;;9.48;2.95;;;11.30;99.90;;;;;;5079377;28;20093;-75
2023/08/31 01:52:06;;;;;;;6.60;2.55;;;11.30;99.90;;;;;;5087702;28;20032;-75
2023/08/31 01:54:33;;;;;;;5.15;2.28;;;11.30;99.90;;;;;;5077507;28;20090;-76
2023/08/31 01:56:59;;;;;;;8.27;2.67;;;11.30;99.90;;;;;;5087557;28;20064;-75
2023/08/31 01:59:25;;;;;;;7.05;2.45;;;11.20;99.90;;;;;;5080943;28;20072;-75
2023/08/31 02:01:51;;;;;;;5.18;2.33;;;11.20;99.90;;;;;;5088652;28;20494;-75
2023/08/31 02:04:17;;;;;;;5.22;2.20;;;11.20;99.90;;;;;;5085449;28;20040;-75
2023/08/31 02:06:42;;;;;;;6.95;1.90;;;11.20;99.90;;;;;;5073631;28;20040;-75
2023/08/31 02:09:08;;;;;;;5.57;2.53;;;11.20;99.90;;;;;;5082525;28;20399;-75
2023/08/31 02:11:37;;;;;;;5.60;2.47;;;11.10;99.90;;;;;;5084473;28;20097;-75
2023/08/31 02:14:04;;;;;;;6.72;2.08;;;11.20;99.90;;;;;;5088101;28;20044;-75
2023/08/31 02:16:31;;;;;;;8.68;2.30;;;11.10;99.90;;;;;;5086933;28;20054;-75
2023/08/31 02:18:57;;;;;;;4.90;2.00;;;11.10;99.90;;;;;;5092513;28;20126;-74
2023/08/31 02:21:23;;;;;;;7.00;2.10;;;11.10;99.90;;;;;;5084446;28;20533;-75
2023/08/31 02:23:48;;;;;;;7.93;2.80;;;11.10;99.90;;;;;;5090624;28;20075;-75
2023/08/31 02:26:14;;;;;;;4.07;1.90;;;11.10;99.90;;;;;;5087885;28;20036;-76
2023/08/31 02:28:40;;;;;;;6.78;1.90;;;11.10;99.90;;;;;;5083722;28;20048;-75
2023/08/31 02:31:05;;;;;;;4.90;2.13;;;11.10;99.90;;;;;;5083869;28;20048;-75
2023/08/31 02:33:31;;;;;;;5.03;2.33;;;11.10;99.90;;;;;;5095875;28;20051;-76
2023/08/31 02:35:57;;;;;;;7.07;2.30;;;11.10;99.90;;;;;;5090829;28;20047;-76
2023/08/31 02:38:23;;;;;;;5.78;2.25;;;11.10;99.90;;;;;;5086720;28;20044;-75
2023/08/31 02:40:49;;;;;;;3.97;1.80;;;11.10;99.90;;;;;;5077015;28;20043;-75
2023/08/31 02:43:15;;;;;;;6.50;2.13;;;11.10;99.90;;;;;;5089670;28;20051;-75
2023/08/31 02:45:41;;;;;;;7.03;2.22;;;11.10;99.90;;;;;;5082329;28;20040;-75
2023/08/31 02:48:07;;;;;;;8.45;2.75;;;11.10;99.90;;;;;;5085229;28;20171;-75
2023/08/31 02:50:36;;;;;;;6.03;2.00;;;11.10;99.90;;;;;;5071266;28;20055;-75
2023/08/31 02:53:02;;;;;;;4.70;1.98;;;11.10;99.90;;;;;;5086882;28;20028;-75
2023/08/31 02:55:28;;;;;;;4.95;1.77;;;11.10;99.90;;;;;;5089462;28;20036;-75
2023/08/31 02:57:56;;;;;;;5.63;1.75;;;11.10;99.90;;;;;;5090338;28;20074;-75
2023/08/31 03:00:22;;;;;;;3.95;1.90;;;11.10;99.90;;;;;;5083333;28;20075;-75
2023/08/31 03:02:48;;;;;;;6.13;1.98;;;11.10;99.90;;;;;;5074845;28;20509;-76
2023/08/31 03:05:14;;;;;;;4.78;2.13;;;11.10;99.90;;;;;;5084400;28;20526;-76
2023/08/31 03:07:39;;;;;;;6.95;1.63;;;11.10;99.90;;;;;;5094297;28;20128;-75
2023/08/31 03:10:06;;;;;;;7.93;1.60;;;11.10;99.90;;;;;;5091479;28;20131;-76
2023/08/31 03:12:31;;;;;;;4.40;1.60;;;11.10;99.90;;;;;;5086051;28;20055;-75
2023/08/31 03:14:57;;;;;;;7.30;1.60;;;11.10;99.90;;;;;;5083920;28;20035;-75
2023/08/31 03:17:23;;;;;;;8.55;1.73;;;11.10;99.90;;;;;;5098482;27;20039;-75
2023/08/31 03:19:49;;;;;;;3.15;1.60;;;11.10;99.90;;;;;;5082905;28;20043;-75
2023/08/31 03:22:15;;;;;;;4.03;1.50;;;11.10;99.90;;;;;;5086693;28;20053;-76
2023/08/31 03:24:41;;;;;;;3.85;1.60;;;11.20;99.90;;;;;;5123368;27;21027;-75
2023/08/31 03:27:06;;;;;;;2.42;1.20;;;11.10;99.90;;;;;;5077512;28;20050;-76
2023/08/31 03:29:32;;;;;;;5.28;1.55;;;11.10;99.90;;;;;;5088074;28;20036;-75
2023/08/31 03:32:00;;;;;;;5.38;1.45;;;11.10;99.90;;;;;;5097984;28;20098;-74
2023/08/31 03:34:31;;;;;;;7.63;1.55;;;11.10;99.90;;;;;;5085031;28;20085;-75
2023/08/31 03:36:57;;;;;;;7.35;1.60;;;11.10;99.90;;;;;;5085600;28;20040;-75
2023/08/31 03:39:24;;;;;;;7.57;1.45;;;11.20;99.90;;;;;;5085596;28;20501;-74
2023/08/31 03:41:50;;;;;;;5.50;1.50;;;11.20;99.90;;;;;;5084967;28;20066;-75
2023/08/31 03:44:15;;;;;;;6.00;1.50;;;11.20;99.90;;;;;;5084501;28;20048;-74
2023/08/31 03:46:41;;;;;;;3.85;1.30;;;11.30;99.90;;;;;;5084852;28;20063;-75
2023/08/31 03:49:06;;;;;;;4.28;1.50;;;11.30;99.90;;;;;;5088407;28;20535;-74
2023/08/31 03:51:33;;;;;;;4.80;1.58;;;11.30;99.90;;;;;;5085485;28;20047;-75
2023/08/31 03:53:58;;;;;;;5.28;1.55;;;11.30;99.90;;;;;;5089793;28;20050;-75
2023/08/31 03:56:25;;;;;;;3.70;1.67;;;11.30;99.90;;;;;;5080837;28;20118;-75
2023/08/31 03:58:51;;;;;;;3.55;1.48;;;11.30;99.90;;;;;;5089679;28;20081;-75
2023/08/31 04:01:17;;;;;;;3.75;1.42;;;11.30;99.90;;;;;;5080593;28;20040;-74
2023/08/31 04:03:43;;;;;;;4.40;1.40;;;11.30;99.90;;;;;;5092977;28;20055;-74
2023/08/31 04:06:09;;;;;;;6.72;1.70;;;11.30;99.90;;;;;;5089543;28;20032;-75
2023/08/31 04:08:35;;;;;;;4.28;1.50;;;11.30;99.90;;;;;;5082343;28;20070;-75
2023/08/31 04:11:00;;;;;;;4.38;1.50;;;11.30;99.90;;;;;;5093294;28;20072;-75
2023/08/31 04:13:26;;;;;;;6.45;1.95;;;11.20;99.90;;;;;;5078133;28;20044;-75
2023/08/31 04:15:53;;;;;;;6.65;1.90;;;11.20;99.90;;;;;;5082342;28;20047;-75
2023/08/31 04:18:18;;;;;;;3.90;1.80;;;11.20;99.90;;;;;;5082057;28;20040;-74
2023/08/31 04:20:52;;;;;;;7.13;1.50;;;11.20;99.90;;;;;;5080440;28;20044;-74
2023/08/31 04:23:19;;;;;;;4.65;1.70;;;11.20;99.90;;;;;;5091842;28;20432;-75
2023/08/31 04:25:45;;;;;;;5.97;1.90;;;11.20;99.90;;;;;;5091653;28;20035;-75
2023/08/31 04:28:11;;;;;;;6.25;2.10;;;11.20;99.90;;;;;;5088406;28;20367;-73
2023/08/31 04:30:36;;;;;;;3.78;1.80;;;11.30;99.90;;;;;;5088145;28;20035;-74
2023/08/31 04:33:04;;;;;;;8.73;2.10;;;11.20;99.90;;;;;;5090749;28;20044;-75
2023/08/31 04:35:31;;;;;;;5.38;1.88;;;11.20;99.90;;;;;;5087139;28;20050;-75
2023/08/31 04:37:57;;;;;;;4.55;2.20;;;11.30;99.90;;;;;;5082676;28;20066;-74
2023/08/31 04:40:24;;;;;;;4.32;2.08;;;11.20;99.90;;;;;;5086375;28;20395;-75
2023/08/31 04:42:49;;;;;;;7.05;1.75;;;11.20;99.90;;;;;;5087051;28;20057;-75
2023/08/31 04:45:15;;;;;;;7.07;2.05;;;11.20;99.90;;;;;;5081099;28;20127;-75
2023/08/31 04:47:42;;;;;;;3.33;1.85;;;11.20;99.90;;;;;;5074342;28;20065;-75
2023/08/31 04:50:08;;;;;;;9.15;2.30;;;11.20;99.90;;;;;;5080853;28;20445;-75
2023/08/31 04:52:34;;;;;;;8.00;2.28;;;11.20;99.90;;;;;;5083626;28;20402;-75
2023/08/31 04:55:04;;;;;;;4.75;2.05;;;11.20;99.90;;;;;;5076054;28;20095;-74
2023/08/31 04:57:29;;;;;;;5.38;1.80;;;11.20;99.90;;;;;;5092057;28;20439;-75
2023/08/31 04:59:55;;;;;;;10.13;2.80;;;11.20;99.90;;;;;;5087606;28;20078;-74
2023/08/31 05:02:21;;;;;;;7.18;2.50;;;11.20;99.90;;;;;;5079906;28;20723;-75
2023/08/31 05:04:46;;;;;;;5.28;2.38;;;11.20;99.90;;;;;;5091213;28;20036;-74
2023/08/31 05:07:12;;;;;;;6.20;2.17;;;11.20;99.90;;;;;;5076547;28;20045;-75
2023/08/31 05:09:38;;;;;;;7.60;2.33;;;11.20;99.90;;;;;;5063669;28;20107;-76
2023/08/31 05:12:04;;;;;;;6.35;2.45;;;11.20;99.90;;;;;;5089734;28;20517;-75
2023/08/31 05:14:29;;;;;;;7.13;2.45;;;11.20;99.90;;;;;;5082964;28;20398;-74
2023/08/31 05:16:56;;;;;;;6.28;2.75;;;11.30;99.90;;;;;;5110110;27;20044;-75
2023/08/31 05:19:22;;;;;;;6.78;2.55;;;11.20;99.90;;;;;;5091337;28;20067;-75
2023/08/31 05:21:47;;;;;;;5.50;2.75;;;11.20;99.90;;;;;;5083386;28;20052;-75
2023/08/31 05:24:13;;;;;;;5.90;2.47;;;11.20;99.90;;;;;;5088635;28;20123;-74
2023/08/31 05:26:39;;;;;;;8.20;2.78;;;11.20;99.90;;;;;;5097696;28;20039;-74
2023/08/31 05:29:05;;;;;;;7.75;2.83;;;11.30;99.90;;;;;;5082359;28;20123;-75
2023/08/31 05:31:31;;;;;;;7.20;3.00;;;11.30;99.90;;;;;;5074040;28;20544;-74
2023/08/31 05:33:57;;;;;;;7.05;2.63;;;11.30;99.90;;;;;;5077568;28;20043;-74
2023/08/31 05:36:23;;;;;;;4.95;2.83;;;11.30;99.90;;;;;;5080550;28;20401;-75
2023/08/31 05:38:51;;;;;;;12.13;3.15;;;11.30;99.90;;;;;;5085360;28;20400;-74
2023/08/31 05:41:16;;;;;;;7.35;2.92;;;11.40;99.90;;;;;;5089499;28;20486;-74
2023/08/31 05:43:42;;;;;;;6.82;2.78;;;11.40;99.90;;;;;;5089871;28;20047;-74
2023/08/31 05:46:08;;;;;;;7.13;3.13;;;11.40;99.90;;;;;;5086745;28;20070;-74
2023/08/31 05:48:36;;;;;;;8.73;2.70;;;11.40;99.90;;;;;;5081500;28;20078;-74
2023/08/31 05:51:03;;;;;;;8.10;2.95;;;11.50;99.90;;;;;;5084958;28;20040;-74
2023/08/31 05:53:33;;;;;;;9.27;2.75;;;11.50;99.90;;;;;;5089444;28;20040;-75
2023/08/31 05:56:06;;;;;;;7.03;2.55;;;11.50;99.90;;;;;;5089376;28;20044;-75
2023/08/31 05:58:36;;;;;;;11.38;2.85;;;11.60;99.90;;;;;;5093654;28;20048;-75
2023/08/31 06:01:03;;;;;;;13.52;2.78;;;11.70;99.90;;;;;;5087730;28;20044;-75
2023/08/31 06:03:29;;;;;;;6.35;2.55;;;11.70;99.90;;;;;;5080728;28;20032;-74
2023/08/31 06:05:56;;;;;;;5.00;2.30;;;11.80;99.90;;;;;;5072589;28;20124;-75
2023/08/31 06:08:22;;;;;;;6.13;2.35;;;11.90;99.90;;;;;;5089759;28;20525;-75
2023/08/31 06:10:47;;;;;;;7.18;2.50;;;11.90;99.90;;;;;;5088561;28;20044;-75
2023/08/31 06:13:13;;;;;;;7.38;2.85;;;12.10;99.90;;;;;;5094621;28;20032;-75
2023/08/31 06:15:39;;;;;;;9.32;3.40;;;12.30;99.90;;;;;;5077621;28;20094;-75
2023/08/31 06:18:05;;;;;;;5.10;2.30;;;12.80;99.90;;;;;;5092336;28;20039;-76
2023/08/31 06:20:31;;;;;;;7.65;1.83;;;13.00;99.90;;;;;;5095142;28;20051;-75
2023/08/31 06:22:57;;;;;;;6.07;2.35;;;13.10;99.90;;;;;;5077579;28;20490;-76
2023/08/31 06:25:22;;;;;;;5.60;2.15;;;13.30;99.90;;;;;;5093318;28;20115;-75
2023/08/31 06:27:48;;;;;;;6.63;1.90;;;13.50;99.90;;;;;;5093862;28;20398;-76
2023/08/31 06:30:17;;;;;;;6.85;2.13;;;13.50;99.90;;;;;;5083554;28;20115;-75
2023/08/31 06:32:44;;;;;;;6.22;1.70;;;13.90;99.90;;;;;;5074018;28;20044;-76
2023/08/31 06:35:11;;;;;;;4.18;2.08;;;13.80;99.90;;;;;;5091852;28;21384;-75
2023/08/31 06:37:37;;;;;;;7.10;2.05;;;13.80;99.90;;;;;;5089647;28;20040;-76
2023/08/31 06:40:05;;;;;;;7.28;2.70;;;13.90;99.90;;;;;;5076722;28;20060;-76
2023/08/31 06:42:31;;;;;;;6.20;2.17;;;14.10;99.90;;;;;;5092413;28;20036;-75
2023/08/31 06:44:56;;;;;;;6.55;1.95;;;14.30;99.90;;;;;;5077515;28;20041;-74
2023/08/31 06:47:23;;;;;;;8.02;2.30;;;14.30;99.90;;;;;;5071980;28;20036;-75
2023/08/31 06:49:49;;;;;;;5.85;1.65;;;14.40;99.90;;;;;;5082229;28;20090;-76
2023/08/31 06:52:15;;;;;;;8.73;1.90;;;14.60;99.90;;;;;;5091451;28;20123;-75
2023/08/31 06:54:41;;;;;;;4.43;1.75;;;14.70;99.90;;;;;;5077557;28;20126;-76
2023/08/31 06:57:07;;;;;;;5.68;1.73;;;14.80;99.90;;;;;;5092322;28;20036;-75
2023/08/31 06:59:33;;;;;;;5.82;1.92;;;14.90;99.90;;;;;;5090248;28;20414;-76
2023/08/31 07:01:59;;;;;;;6.18;1.70;;;15.10;99.90;;;;;;5092957;28;20032;-75
2023/08/31 07:04:27;;;;;;;3.60;1.73;;;15.10;99.90;;;;;;5092367;28;20040;-74
2023/08/31 07:06:52;;;;;;;9.20;2.38;;;15.20;99.90;;;;;;5088013;28;20136;-75
2023/08/31 07:09:18;;;;;;;7.35;2.60;;;15.30;99.90;;;;;;5093185;28;20516;-75
2023/08/31 07:11:44;;;;;;;8.13;2.00;;;15.40;99.90;;;;;;5091729;28;20040;-75
2023/08/31 07:14:09;;;;;;;5.03;1.40;;;15.60;99.90;;;;;;5090450;28;20125;-75
2023/08/31 07:16:35;;;;;;;11.50;1.52;;;15.60;99.90;;;;;;5088144;28;20062;-76
2023/08/31 07:19:02;;;;;;;4.43;1.35;;;15.70;99.90;;;;;;5091627;28;20111;-75
2023/08/31 07:21:28;;;;;;;6.73;1.67;;;15.80;99.90;;;;;;5088502;28;20433;-75
2023/08/31 07:23:54;;;;;;;7.38;1.48;;;15.80;99.90;;;;;;5088970;28;20093;-75
2023/08/31 07:26:20;;;;;;;6.03;1.40;;;15.90;99.90;;;;;;5084363;28;20401;-75
2023/08/31 07:28:46;;;;;;;4.07;1.40;;;16.00;99.90;;;;;;5076710;28;20051;-75
2023/08/31 07:31:12;;;;;;;4.43;1.38;;;16.00;99.90;;;;;;5079150;28;20047;-76
2023/08/31 07:33:38;;;;;;;7.18;1.70;;;16.10;99.90;;;;;;5082439;28;20044;-75
2023/08/31 07:36:05;;;;;;;7.47;1.70;;;16.20;99.90;;;;;;5085662;28;20033;-75
2023/08/31 07:38:31;;;;;;;4.30;1.27;;;16.30;99.90;;;;;;5089139;28;20103;-76
2023/08/31 07:40:57;;;;;;;4.57;1.50;;;16.30;99.90;;;;;;5088812;28;20055;-75
2023/08/31 07:43:23;;;;;;;6.38;1.40;;;16.40;99.90;;;;;;5073721;28;20040;-75
2023/08/31 07:45:49;;;;;;;5.30;1.27;;;16.50;99.90;;;;;;5092541;28;20517;-75
2023/08/31 07:48:15;;;;;;;6.68;1.30;;;16.60;99.90;;;;;;5089870;28;20040;-75
2023/08/31 07:50:45;;;;;;;6.72;1.55;;;16.70;99.90;;;;;;5079574;28;20055;-76
2023/08/31 07:53:11;;;;;;;4.80;1.25;;;16.90;99.90;;;;;;5091115;28;20084;-75
2023/08/31 07:55:37;;;;;;;5.22;1.40;;;16.90;99.90;;;;;;5076078;28;20089;-76
2023/08/31 07:58:04;;;;;;;4.50;1.40;;;17.10;99.90;;;;;;5084255;28;20048;-76
2023/08/31 08:00:30;;;;;;;2.88;1.08;;;17.10;99.90;;;;;;5087855;28;20086;-75
2023/08/31 08:02:55;;;;;;;4.25;1.27;;;17.10;99.90;;;;;;5092149;28;20393;-75
2023/08/31 08:05:21;;;;;;;3.05;1.33;;;17.20;99.90;;;;;;5073469;28;20093;-76
2023/08/31 08:07:47;;;;;;;6.38;1.50;;;17.30;99.90;;;;;;5084358;28;20040;-76
2023/08/31 08:10:12;;;;;;;6.40;1.40;;;17.30;99.90;;;;;;5089169;28;20044;-76
2023/08/31 08:12:39;;;;;;;3.10;0.85;;;17.40;99.90;;;;;;5087372;28;20040;-76
2023/08/31 08:15:09;;;;;;;5.47;1.80;;;17.50;99.90;;;;;;5078895;28;20045;-75
2023/08/31 08:17:35;;;;;;;4.75;1.25;;;17.50;99.90;;;;;;5081484;28;20130;-74
2023/08/31 08:20:01;;;;;;;6.47;1.13;;;17.50;99.90;;;;;;5091093;28;20124;-74
2023/08/31 08:22:26;;;;;;;2.90;0.98;;;17.60;99.90;;;;;;5084620;28;20118;-75
2023/08/31 08:24:52;;;;;;;2.30;0.90;;;17.70;99.90;;;;;;5082850;28;20049;-75
2023/08/31 08:27:18;;;;;;;2.53;0.98;;;17.70;99.90;;;;;;5091462;28;20072;-76
2023/08/31 08:29:45;;;;;;;4.07;1.15;;;17.70;99.90;;;;;;5078575;28;20083;-75
2023/08/31 08:32:10;;;;;;;5.35;1.20;;;17.80;99.90;;;;;;5085200;28;20044;-76
2023/08/31 08:34:36;;;;;;;4.10;1.20;;;17.90;99.90;;;;;;5094803;28;20044;-75
2023/08/31 08:37:03;;;;;;;3.83;1.38;;;17.80;99.90;;;;;;5087396;28;20158;-76
2023/08/31 08:39:29;;;;;;;5.10;1.13;;;18.20;99.90;;;;;;5092130;28;20555;-76
2023/08/31 08:41:58;;;;;;;6.47;1.33;;;18.10;99.90;;;;;;5082779;28;20294;-76
2023/08/31 08:44:32;;;;;;;4.53;1.02;;;18.10;99.90;;;;;;5076166;28;20048;-76
2023/08/31 08:46:59;;;;;;;6.25;1.17;;;18.20;99.90;;;;;;5065074;28;20051;-76
2023/08/31 08:49:26;;;;;;;3.75;1.20;;;18.30;99.90;;;;;;5078877;28;20104;-75
2023/08/31 08:51:52;;;;;;;4.68;1.33;;;18.50;99.90;;;;;;5086041;28;20040;-76
2023/08/31 08:54:22;;;;;;;5.35;1.15;;;18.60;99.90;;;;;;5080341;28;20040;-75
2023/08/31 08:56:48;;;;;;;4.97;1.20;;;18.80;99.90;;;;;;5092275;28;20047;-75
2023/08/31 08:59:14;;;;;;;5.80;1.33;;;18.80;99.90;;;;;;5082514;28;20040;-75
2023/08/31 09:01:40;;;;;;;3.05;1.20;;;18.60;99.90;;;;;;5076817;28;20177;-75
2023/08/31 09:04:06;;;;;;;4.70;1.25;;;18.50;99.90;;;;;;5086671;28;20505;-74
2023/08/31 09:06:32;;;;;;;2.40;0.95;;;18.50;99.90;;;;;;5087065;28;20049;-75
2023/08/31 09:08:58;;;;;;;2.33;1.00;;;18.50;99.90;;;;;;5080531;28;20406;-76
2023/08/31 09:11:25;;;;;;;2.38;0.80;;;18.60;99.90;;;;;;5092040;28;20040;-75
2023/08/31 09:13:51;;;;;;;3.63;1.00;;;18.30;99.90;;;;;;5080347;28;20476;-74
2023/08/31 09:16:28;;;;;;;3.13;0.85;;;18.10;99.90;;;;;;5075723;28;20058;-75
2023/08/31 09:18:55;;;;;;;5.53;1.67;;;17.80;99.90;;;;;;5075935;28;20029;-76
2023/08/31 09:21:21;;;;;;;5.72;1.40;;;17.50;99.90;;;;;;5084775;28;20052;-75
2023/08/31 09:23:58;;;;;;;3.28;1.20;;;17.30;99.90;;;;;;5091249;28;20048;-76
2023/08/31 09:26:24;;;;;;;2.25;0.82;;;17.30;99.90;;;;;;5094958;28;20043;-75
2023/08/31 09:28:50;;;;;;;3.75;1.00;;;17.30;99.90;;;;;;5062425;28;20040;-76
2023/08/31 09:31:16;;;;;;;4.68;1.27;;;17.50;99.90;;;;;;5088714;28;20040;-75
2023/08/31 09:33:51;;;;;;;4.22;1.58;;;17.70;99.90;;;;;;5073985;28;20146;-73
2023/08/31 09:36:18;;;;;;;4.53;1.30;;;17.90;99.90;;;;;;5077198;28;20032;-75
2023/08/31 09:38:44;;;;;;;3.97;1.20;;;18.10;99.90;;;;;;5089135;28;20040;-77
2023/08/31 09:41:10;;;;;;;2.03;1.00;;;18.30;99.90;;;;;;5072441;28;20048;-75
2023/08/31 09:43:36;;;;;;;4.03;1.10;;;18.50;99.90;;;;;;5094228;28;20401;-77
2023/08/31 09:46:04;;;;;;;3.55;1.15;;;18.70;99.90;;;;;;5086346;28;20035;-75
2023/08/31 09:48:30;;;;;;;2.88;1.17;;;19.00;99.90;;;;;;5095026;28;20036;-76
2023/08/31 09:50:56;;;;;;;3.85;1.30;;;19.20;99.90;;;;;;5094143;28;20036;-79
2023/08/31 09:53:24;;;;;;;5.13;0.93;;;19.20;99.90;;;;;;5092204;28;20071;-75
2023/08/31 09:55:51;;;;;;;3.15;1.05;;;18.80;99.90;;;;;;5092247;28;20036;-76
2023/08/31 09:58:21;;;;;;;2.10;0.88;;;18.50;99.90;;;;;;5096586;28;20374;-76
2023/08/31 10:00:49;;;;;;;1.92;0.82;;;18.30;99.90;;;;;;5092259;28;20131;-75
2023/08/31 10:03:17;;;;;;;3.45;1.15;;;18.20;99.90;;;;;;5090754;28;20059;-76
2023/08/31 10:05:49;;;;;;;4.10;1.25;;;18.40;99.90;;;;;;5094540;28;20036;-76
2023/08/31 10:08:16;;;;;;;3.60;1.60;;;18.50;99.90;;;;;;5096029;28;20041;-77
2023/08/31 10:10:42;;;;;;;3.85;1.30;;;18.60;99.90;;;;;;5088212;28;20127;-76
2023/08/31 10:13:08;;;;;;;4.57;1.17;;;18.90;99.90;;;;;;5084190;28;20104;-75
2023/08/31 10:15:35;;;;;;;5.28;1.27;;;18.90;99.90;;;;;;5090250;28;20058;-74
2023/08/31 10:18:06;;;;;;;6.22;1.38;;;18.70;99.90;;;;;;5081389;28;20102;-76
2023/08/31 10:20:33;;;;;;;5.63;1.50;;;18.50;99.90;;;;;;5091617;28;20032;-75
2023/08/31 10:23:06;;;;;;;4.38;1.63;;;18.30;99.90;;;;;;5085385;28;20064;-78
2023/08/31 10:25:53;;;;;;;5.53;1.38;;;18.10;99.90;;;;;;5123267;27;20037;-76
2023/08/31 10:28:20;;;;;;;5.53;1.58;;;18.00;99.90;;;;;;5072827;28;20048;-77
2023/08/31 10:31:15;;;;;;;4.95;1.55;;;17.90;99.90;;;;;;5083766;28;20041;-76
2023/08/31 10:33:57;;;;;;;2.70;1.23;;;18.10;99.90;;;;;;5091466;28;20119;-77
2023/08/31 10:37:00;;;;;;;2.85;1.45;;;18.50;99.90;;;;;;5093078;28;20043;-75
2023/08/31 10:39:37;;;;;;;4.20;1.08;;;19.20;99.90;;;;;;5084142;28;20122;-75
2023/08/31 10:42:03;;;;;;;7.68;1.50;;;19.30;99.90;;;;;;5077338;28;20047;-76
2023/08/31 10:44:32;;;;;;;5.05;1.30;;;19.60;99.90;;;;;;5082412;28;20041;-76
2023/08/31 10:47:03;;;;;;;3.28;1.30;;;20.00;99.90;;;;;;5089753;28;20032;-76
2023/08/31 10:49:31;;;;;;;5.38;1.40;;;20.30;99.90;;;;;;5084980;28;20048;-77
2023/08/31 10:52:14;;;;;;;4.28;1.60;;;20.50;99.90;;;;;;5073883;28;20113;-77
2023/08/31 10:54:40;;;;;;;5.97;1.20;;;20.70;99.90;;;;;;5071529;28;20138;-76
2023/08/31 10:57:06;;;;;;;4.40;1.30;;;20.60;99.90;;;;;;5091526;28;20040;-75
2023/08/31 10:59:52;;;;;;;5.38;1.90;;;20.60;99.90;;;;;;5090331;28;20387;-76
2023/08/31 11:02:44;;;;;;;5.07;1.60;;;20.30;99.90;;;;;;5089267;28;20040;-76
2023/08/31 11:05:10;;;;;;;4.53;1.30;;;19.90;99.90;;;;;;5080619;28;20045;-75
2023/08/31 11:07:38;;;;;;;3.15;1.27;;;19.50;99.90;;;;;;5088303;28;20128;-76
2023/08/31 11:10:10;;;;;;;3.33;1.10;;;19.30;99.90;;;;;;5096115;28;20657;-75
2023/08/31 11:12:36;;;;;;;5.05;1.60;;;19.60;99.90;;;;;;5096849;28;20126;-76
2023/08/31 11:15:03;;;;;;;5.75;2.10;;;20.00;99.90;;;;;;5083638;28;20065;-76
2023/08/31 11:17:29;;;;;;;6.32;1.80;;;20.50;99.90;;;;;;5086280;28;20103;-76
2023/08/31 11:19:56;;;;;;;5.28;1.63;;;21.00;99.90;;;;;;5089708;28;20089;-76
2023/08/31 11:22:22;;;;;;;8.10;2.47;;;21.50;99.90;;;;;;5098997;28;20388;-76
2023/08/31 11:24:48;;;;;;;7.93;1.73;;;22.00;99.90;;;;;;5098587;28;20040;-76
2023/08/31 11:27:14;;;;;;;4.07;1.90;;;22.30;99.90;;;;;;5092892;28;20051;-74
2023/08/31 11:29:44;;;;;;;11.90;1.95;;;22.50;99.90;;;;;;5099668;28;20040;-75
2023/08/31 11:32:09;;;;;;;9.20;1.80;;;22.10;99.90;;;;;;5094413;28;20032;-75
2023/08/31 11:34:39;;;;;;;5.35;1.55;;;21.80;99.90;;;;;;5100283;28;20044;-76
2023/08/31 11:37:05;;;;;;;4.85;1.63;;;21.50;99.90;;;;;;5099213;28;20040;-76
2023/08/31 11:39:31;;;;;;;5.55;1.58;;;21.20;99.90;;;;;;5097293;28;20123;-76
2023/08/31 11:41:57;;;;;;;4.13;1.33;;;20.90;99.90;;;;;;5090188;28;20046;-75
2023/08/31 11:44:23;;;;;;;5.90;1.13;;;20.80;99.90;;;;;;5093508;28;20101;-76
2023/08/31 11:46:50;;;;;;;2.40;1.10;;;21.00;99.90;;;;;;5084089;28;20041;-76
2023/08/31 11:49:17;;;;;;;4.18;1.00;;;21.30;99.90;;;;;;5092273;28;20047;-75
2023/08/31 11:51:43;;;;;;;;;;;21.30;99.90;;;;;;5081796;28;20048;-75
2023/08/31 11:54:10;;;;;;;3.05;1.30;;;20.80;99.90;;;;;;5101016;28;20003;-76
2023/08/31 11:56:43;;;;;;;5.53;1.63;;;20.30;99.90;;;;;;5101405;28;20036;-74
2023/08/31 11:59:13;;;;;;;4.00;1.50;;;19.60;99.90;;;;;;5097027;28;20298;-74
2023/08/31 12:01:40;;;;;;;3.55;1.27;;;19.00;99.90;;;;;;5098540;28;20040;-75
2023/08/31 12:04:14;;;;;;;2.88;1.33;;;18.50;99.90;;;;;;5087706;28;20045;-74
2023/08/31 12:06:41;;;;;;;5.05;1.40;;;18.10;99.90;;;;;;5098280;28;20044;-76
2023/08/31 12:09:09;;;;;;;3.58;1.30;;;18.00;99.90;;;;;;5098411;28;20048;-76
2023/08/31 12:11:35;;;;;;;8.98;1.63;;;18.10;99.90;;;;;;5122351;27;20037;-77
2023/08/31 12:14:05;;;;;;;5.00;1.58;;;18.40;99.90;;;;;;5091080;28;20130;-76
2023/08/31 12:16:35;;;;;;;6.38;1.48;;;18.70;99.90;;;;;;5120104;27;20378;-75
2023/08/31 12:19:03;;;;;;;6.82;1.70;;;18.50;99.90;;;;;;5090858;28;20044;-74
2023/08/31 12:21:30;;;;;;;5.32;1.45;;;18.10;99.90;;;;;;5087672;28;20064;-75
2023/08/31 12:23:58;;;;;;;3.63;1.13;;;17.60;99.90;;;;;;5096388;28;20453;-75
2023/08/31 12:26:24;;;;;;;4.22;1.63;;;17.40;99.90;;;;;;5095899;28;20516;-75
2023/08/31 12:28:49;;;;;;;4.40;1.50;;;17.30;99.90;;;;;;5097734;28;20032;-75
2023/08/31 12:31:15;;;;;;;5.10;1.20;;;17.20;99.90;;;;;;5101424;28;20065;-77
2023/08/31 12:33:41;;;;;;;5.20;1.83;;;17.20;99.90;;;;;;5103913;28;20029;-74
2023/08/31 12:36:07;;;;;;;6.40;2.00;;;17.10;99.90;;;;;;5086429;28;20040;-72
2023/08/31 12:38:33;;;;;;;7.93;1.73;;;17.00;99.90;;;;;;5083842;28;20040;-74
2023/08/31 12:40:59;;;;;;;5.55;1.63;;;16.90;99.90;;;;;;5091428;28;20108;-75
2023/08/31 12:43:25;;;;;;;5.85;1.73;;;16.80;99.90;;;;;;5085924;28;20444;-77
2023/08/31 12:45:50;;;;;;;5.97;1.58;;;17.00;99.90;;;;;;5084277;28;20050;-77
2023/08/31 12:48:16;;;;;;;4.85;1.23;;;17.30;99.90;;;;;;5090171;28;20040;-77
2023/08/31 12:50:43;;;;;;;4.13;1.40;;;17.50;99.90;;;;;;5092559;28;20044;-78